sensor_id;sensor_type;location;lat;lon;timestamp;temperature;humidity
9373;DHT22;10838;52.350;9.790;2023-06-24T00:01:01;17.30;95.60
9373;DHT22;10838;52.350;9.790;2023-06-24T00:03:28;17.20;95.60
9373;DHT22;10838;52.350;9.790;2023-06-24T00:05:55;17.20;95.60
9373;DHT22;10838;52.350;9.790;2023-06-24T00:08:23;17.20;95.60
9373;DHT22;10838;52.350;9.790;2023-06-24T00:11:00;17.20;95.60
9373;DHT22;10838;52.350;9.790;2023-06-24T00:13:26;17.10;95.60
9373;DHT22;10838;52.350;9.790;2023-06-24T00:15:54;17.10;95.60
9373;DHT22;10838;52.350;9.790;2023-06-24T00:18:20;17.10;95.60
9373;DHT22;10838;52.350;9.790;2023-06-24T00:20:49;17.00;95.60
9373;DHT22;10838;52.350;9.790;2023-06-24T00:23:23;17.00;95.60
9373;DHT22;10838;52.350;9.790;2023-06-24T00:25:51;17.00;95.50
9373;DHT22;10838;52.350;9.790;2023-06-24T00:28:17;16.90;95.50
9373;DHT22;10838;52.350;9.790;2023-06-24T00:30:44;16.90;95.50
9373;DHT22;10838;52.350;9.790;2023-06-24T00:33:10;16.90;95.50
9373;DHT22;10838;52.350;9.790;2023-06-24T00:35:38;16.80;95.50
9373;DHT22;10838;52.350;9.790;2023-06-24T00:38:05;16.80;95.50
9373;DHT22;10838;52.350;9.790;2023-06-24T00:40:33;16.80;95.50
9373;DHT22;10838;52.350;9.790;2023-06-24T00:43:00;16.70;95.50
9373;DHT22;10838;52.350;9.790;2023-06-24T00:45:28;16.70;95.50
9373;DHT22;10838;52.350;9.790;2023-06-24T00:47:55;16.70;95.50
9373;DHT22;10838;52.350;9.790;2023-06-24T00:50:22;16.60;95.50
9373;DHT22;10838;52.350;9.790;2023-06-24T00:52:49;16.60;95.50
9373;DHT22;10838;52.350;9.790;2023-06-24T00:55:16;16.60;95.50
9373;DHT22;10838;52.350;9.790;2023-06-24T00:57:45;16.60;95.50
9373;DHT22;10838;52.350;9.790;2023-06-24T01:00:17;16.50;95.40
9373;DHT22;10838;52.350;9.790;2023-06-24T01:02:46;16.50;95.40
9373;DHT22;10838;52.350;9.790;2023-06-24T01:05:14;16.50;95.40
9373;DHT22;10838;52.350;9.790;2023-06-24T01:07:42;16.40;95.40
9373;DHT22;10838;52.350;9.790;2023-06-24T01:10:09;16.40;95.40
9373;DHT22;10838;52.350;9.790;2023-06-24T01:12:39;16.40;95.40
9373;DHT22;10838;52.350;9.790;2023-06-24T01:15:08;16.40;95.40
9373;DHT22;10838;52.350;9.790;2023-06-24T01:17:37;16.30;95.40
9373;DHT22;10838;52.350;9.790;2023-06-24T01:20:09;16.30;95.40
9373;DHT22;10838;52.350;9.790;2023-06-24T01:23:00;16.20;95.30
9373;DHT22;10838;52.350;9.790;2023-06-24T01:25:40;16.20;95.30
9373;DHT22;10838;52.350;9.790;2023-06-24T01:28:29;16.10;95.30
9373;DHT22;10838;52.350;9.790;2023-06-24T01:31:26;16.10;95.30
9373;DHT22;10838;52.350;9.790;2023-06-24T01:34:01;16.10;95.30
9373;DHT22;10838;52.350;9.790;2023-06-24T01:36:30;16.00;95.30
9373;DHT22;10838;52.350;9.790;2023-06-24T01:39:02;16.00;95.30
9373;DHT22;10838;52.350;9.790;2023-06-24T01:41:32;16.00;95.30
9373;DHT22;10838;52.350;9.790;2023-06-24T01:44:00;15.90;95.30
9373;DHT22;10838;52.350;9.790;2023-06-24T01:46:29;15.90;95.30
9373;DHT22;10838;52.350;9.790;2023-06-24T01:49:01;15.90;95.30
9373;DHT22;10838;52.350;9.790;2023-06-24T01:51:29;15.80;95.30
9373;DHT22;10838;52.350;9.790;2023-06-24T01:54:00;15.80;95.30
9373;DHT22;10838;52.350;9.790;2023-06-24T01:56:29;15.80;95.30
9373;DHT22;10838;52.350;9.790;2023-06-24T01:58:57;15.70;95.30
9373;DHT22;10838;52.350;9.790;2023-06-24T02:01:25;15.70;95.30
9373;DHT22;10838;52.350;9.790;2023-06-24T02:03:54;15.60;95.30
9373;DHT22;10838;52.350;9.790;2023-06-24T02:06:22;15.60;95.30
9373;DHT22;10838;52.350;9.790;2023-06-24T02:08:50;15.60;95.30
9373;DHT22;10838;52.350;9.790;2023-06-24T02:11:19;15.60;95.30
9373;DHT22;10838;52.350;9.790;2023-06-24T02:13:48;15.50;95.30
9373;DHT22;10838;52.350;9.790;2023-06-24T02:16:16;15.50;95.30
9373;DHT22;10838;52.350;9.790;2023-06-24T02:18:44;15.50;95.30
9373;DHT22;10838;52.350;9.790;2023-06-24T02:21:16;15.40;95.30
9373;DHT22;10838;52.350;9.790;2023-06-24T02:23:43;15.40;95.20
9373;DHT22;10838;52.350;9.790;2023-06-24T02:26:11;15.40;95.20
9373;DHT22;10838;52.350;9.790;2023-06-24T02:28:38;15.30;95.20
9373;DHT22;10838;52.350;9.790;2023-06-24T02:31:06;15.40;95.20
9373;DHT22;10838;52.350;9.790;2023-06-24T02:33:35;15.30;95.20
9373;DHT22;10838;52.350;9.790;2023-06-24T02:36:01;15.30;95.20
9373;DHT22;10838;52.350;9.790;2023-06-24T02:38:29;15.20;95.20
9373;DHT22;10838;52.350;9.790;2023-06-24T02:40:56;15.20;95.20
9373;DHT22;10838;52.350;9.790;2023-06-24T02:43:23;15.20;95.20
9373;DHT22;10838;52.350;9.790;2023-06-24T02:45:50;15.10;95.20
9373;DHT22;10838;52.350;9.790;2023-06-24T02:48:18;15.10;95.20
9373;DHT22;10838;52.350;9.790;2023-06-24T02:50:46;15.10;95.20
9373;DHT22;10838;52.350;9.790;2023-06-24T02:53:14;15.00;95.20
9373;DHT22;10838;52.350;9.790;2023-06-24T02:55:42;15.00;95.20
9373;DHT22;10838;52.350;9.790;2023-06-24T02:58:10;15.00;95.20
9373;DHT22;10838;52.350;9.790;2023-06-24T03:00:37;15.00;95.20
9373;DHT22;10838;52.350;9.790;2023-06-24T03:03:05;14.90;95.20
9373;DHT22;10838;52.350;9.790;2023-06-24T03:05:34;14.90;95.20
9373;DHT22;10838;52.350;9.790;2023-06-24T03:08:02;14.90;95.20
9373;DHT22;10838;52.350;9.790;2023-06-24T03:10:29;14.80;95.30
9373;DHT22;10838;52.350;9.790;2023-06-24T03:12:57;14.80;95.20
9373;DHT22;10838;52.350;9.790;2023-06-24T03:15:23;14.80;95.20
9373;DHT22;10838;52.350;9.790;2023-06-24T03:17:50;14.80;95.20
9373;DHT22;10838;52.350;9.790;2023-06-24T03:20:17;14.80;95.20
9373;DHT22;10838;52.350;9.790;2023-06-24T03:22:44;14.70;95.20
9373;DHT22;10838;52.350;9.790;2023-06-24T03:25:10;14.80;95.20
9373;DHT22;10838;52.350;9.790;2023-06-24T03:27:37;14.70;95.20
9373;DHT22;10838;52.350;9.790;2023-06-24T03:30:06;14.70;95.20
9373;DHT22;10838;52.350;9.790;2023-06-24T03:32:32;14.70;95.20
9373;DHT22;10838;52.350;9.790;2023-06-24T03:35:00;14.70;95.20
9373;DHT22;10838;52.350;9.790;2023-06-24T03:37:27;14.70;95.20
9373;DHT22;10838;52.350;9.790;2023-06-24T03:39:55;14.60;95.20
9373;DHT22;10838;52.350;9.790;2023-06-24T03:42:21;14.60;95.20
9373;DHT22;10838;52.350;9.790;2023-06-24T03:44:48;14.60;95.30
9373;DHT22;10838;52.350;9.790;2023-06-24T03:47:16;14.60;95.30
9373;DHT22;10838;52.350;9.790;2023-06-24T03:49:42;14.60;95.30
9373;DHT22;10838;52.350;9.790;2023-06-24T03:52:09;14.60;95.30
9373;DHT22;10838;52.350;9.790;2023-06-24T03:54:35;14.50;95.30
9373;DHT22;10838;52.350;9.790;2023-06-24T03:57:02;14.50;95.30
9373;DHT22;10838;52.350;9.790;2023-06-24T03:59:29;14.50;95.40
9373;DHT22;10838;52.350;9.790;2023-06-24T04:01:55;14.50;95.30
9373;DHT22;10838;52.350;9.790;2023-06-24T04:04:24;14.50;95.40
9373;DHT22;10838;52.350;9.790;2023-06-24T04:06:50;14.50;95.40
9373;DHT22;10838;52.350;9.790;2023-06-24T04:09:17;14.50;95.40
9373;DHT22;10838;52.350;9.790;2023-06-24T04:11:43;14.50;95.40
9373;DHT22;10838;52.350;9.790;2023-06-24T04:14:10;14.50;95.40
9373;DHT22;10838;52.350;9.790;2023-06-24T04:16:37;14.50;95.40
9373;DHT22;10838;52.350;9.790;2023-06-24T04:19:03;14.60;95.50
9373;DHT22;10838;52.350;9.790;2023-06-24T04:21:31;14.50;95.50
9373;DHT22;10838;52.350;9.790;2023-06-24T04:23:58;14.50;95.60
9373;DHT22;10838;52.350;9.790;2023-06-24T04:26:24;14.50;95.60
9373;DHT22;10838;52.350;9.790;2023-06-24T04:28:51;14.60;95.70
9373;DHT22;10838;52.350;9.790;2023-06-24T04:31:17;14.60;95.70
9373;DHT22;10838;52.350;9.790;2023-06-24T04:33:44;14.60;95.70
9373;DHT22;10838;52.350;9.790;2023-06-24T04:36:10;14.60;95.80
9373;DHT22;10838;52.350;9.790;2023-06-24T04:38:38;14.60;95.80
9373;DHT22;10838;52.350;9.790;2023-06-24T04:41:05;14.60;95.90
9373;DHT22;10838;52.350;9.790;2023-06-24T04:43:32;14.60;95.90
9373;DHT22;10838;52.350;9.790;2023-06-24T04:45:58;14.60;96.00
9373;DHT22;10838;52.350;9.790;2023-06-24T04:48:26;14.70;96.00
9373;DHT22;10838;52.350;9.790;2023-06-24T04:50:53;14.70;96.10
9373;DHT22;10838;52.350;9.790;2023-06-24T04:53:20;14.70;96.10
9373;DHT22;10838;52.350;9.790;2023-06-24T04:55:48;14.70;96.20
9373;DHT22;10838;52.350;9.790;2023-06-24T04:58:14;14.80;96.30
9373;DHT22;10838;52.350;9.790;2023-06-24T05:00:41;14.80;96.30
9373;DHT22;10838;52.350;9.790;2023-06-24T05:03:07;14.80;96.40
9373;DHT22;10838;52.350;9.790;2023-06-24T05:05:34;14.90;96.50
9373;DHT22;10838;52.350;9.790;2023-06-24T05:08:00;14.90;96.50
9373;DHT22;10838;52.350;9.790;2023-06-24T05:10:27;15.00;96.60
9373;DHT22;10838;52.350;9.790;2023-06-24T05:12:55;15.00;96.60
9373;DHT22;10838;52.350;9.790;2023-06-24T05:15:22;15.10;96.70
9373;DHT22;10838;52.350;9.790;2023-06-24T05:17:48;15.10;96.70
9373;DHT22;10838;52.350;9.790;2023-06-24T05:20:15;15.20;96.70
9373;DHT22;10838;52.350;9.790;2023-06-24T05:22:43;15.20;96.80
9373;DHT22;10838;52.350;9.790;2023-06-24T05:25:09;15.30;96.80
9373;DHT22;10838;52.350;9.790;2023-06-24T05:27:36;15.40;96.90
9373;DHT22;10838;52.350;9.790;2023-06-24T05:30:05;15.40;96.90
9373;DHT22;10838;52.350;9.790;2023-06-24T05:32:32;15.50;96.90
9373;DHT22;10838;52.350;9.790;2023-06-24T05:34:59;15.50;96.90
9373;DHT22;10838;52.350;9.790;2023-06-24T05:37:25;15.60;97.00
9373;DHT22;10838;52.350;9.790;2023-06-24T05:39:52;15.70;97.00
9373;DHT22;10838;52.350;9.790;2023-06-24T05:42:19;15.80;97.00
9373;DHT22;10838;52.350;9.790;2023-06-24T05:44:45;15.90;97.10
9373;DHT22;10838;52.350;9.790;2023-06-24T05:47:14;16.10;97.10
9373;DHT22;10838;52.350;9.790;2023-06-24T05:49:40;16.30;97.10
9373;DHT22;10838;52.350;9.790;2023-06-24T05:52:07;16.60;97.10
9373;DHT22;10838;52.350;9.790;2023-06-24T05:54:33;16.70;97.10
9373;DHT22;10838;52.350;9.790;2023-06-24T05:57:00;17.00;97.10
9373;DHT22;10838;52.350;9.790;2023-06-24T05:59:27;17.30;97.00
9373;DHT22;10838;52.350;9.790;2023-06-24T06:01:53;17.50;97.00
9373;DHT22;10838;52.350;9.790;2023-06-24T06:04:21;17.80;96.90
9373;DHT22;10838;52.350;9.790;2023-06-24T06:06:48;18.00;96.90
9373;DHT22;10838;52.350;9.790;2023-06-24T06:09:14;18.30;96.80
9373;DHT22;10838;52.350;9.790;2023-06-24T06:11:41;18.60;96.80
9373;DHT22;10838;52.350;9.790;2023-06-24T06:14:08;18.80;96.70
9373;DHT22;10838;52.350;9.790;2023-06-24T06:16:34;19.00;96.60
9373;DHT22;10838;52.350;9.790;2023-06-24T06:19:01;19.20;96.50
9373;DHT22;10838;52.350;9.790;2023-06-24T06:21:29;19.50;96.50
9373;DHT22;10838;52.350;9.790;2023-06-24T06:23:56;19.70;96.40
9373;DHT22;10838;52.350;9.790;2023-06-24T06:26:23;19.90;96.30
9373;DHT22;10838;52.350;9.790;2023-06-24T06:28:49;20.10;96.10
9373;DHT22;10838;52.350;9.790;2023-06-24T06:31:16;20.30;96.00
9373;DHT22;10838;52.350;9.790;2023-06-24T06:33:43;20.50;96.00
9373;DHT22;10838;52.350;9.790;2023-06-24T06:36:10;20.80;95.90
9373;DHT22;10838;52.350;9.790;2023-06-24T06:38:37;21.00;95.80
9373;DHT22;10838;52.350;9.790;2023-06-24T06:41:04;21.20;95.70
9373;DHT22;10838;52.350;9.790;2023-06-24T06:43:31;21.40;95.60
9373;DHT22;10838;52.350;9.790;2023-06-24T06:45:58;21.60;95.50
9373;DHT22;10838;52.350;9.790;2023-06-24T06:48:25;21.80;95.50
9373;DHT22;10838;52.350;9.790;2023-06-24T06:50:51;22.00;95.40
9373;DHT22;10838;52.350;9.790;2023-06-24T06:53:18;22.20;95.30
9373;DHT22;10838;52.350;9.790;2023-06-24T06:55:46;22.40;95.30
9373;DHT22;10838;52.350;9.790;2023-06-24T06:58:13;22.60;95.20
9373;DHT22;10838;52.350;9.790;2023-06-24T07:00:39;22.80;95.10
9373;DHT22;10838;52.350;9.790;2023-06-24T07:03:06;23.00;95.00
9373;DHT22;10838;52.350;9.790;2023-06-24T07:05:32;23.10;94.90
9373;DHT22;10838;52.350;9.790;2023-06-24T07:07:59;23.30;94.80
9373;DHT22;10838;52.350;9.790;2023-06-24T07:10:26;23.40;94.80
9373;DHT22;10838;52.350;9.790;2023-06-24T07:12:54;23.60;94.70
9373;DHT22;10838;52.350;9.790;2023-06-24T07:15:24;23.70;94.50
9373;DHT22;10838;52.350;9.790;2023-06-24T07:17:51;23.90;94.50
9373;DHT22;10838;52.350;9.790;2023-06-24T07:20:17;24.10;94.40
9373;DHT22;10838;52.350;9.790;2023-06-24T07:22:44;24.30;94.40
9373;DHT22;10838;52.350;9.790;2023-06-24T07:25:11;24.50;94.30
9373;DHT22;10838;52.350;9.790;2023-06-24T07:27:38;24.70;94.30
9373;DHT22;10838;52.350;9.790;2023-06-24T07:30:07;24.80;94.20
9373;DHT22;10838;52.350;9.790;2023-06-24T07:32:34;24.90;94.00
9373;DHT22;10838;52.350;9.790;2023-06-24T07:35:00;25.00;94.00
9373;DHT22;10838;52.350;9.790;2023-06-24T07:37:27;25.20;94.00
9373;DHT22;10838;52.350;9.790;2023-06-24T07:39:53;25.30;93.90
9373;DHT22;10838;52.350;9.790;2023-06-24T07:42:20;25.50;93.70
9373;DHT22;10838;52.350;9.790;2023-06-24T07:44:46;25.60;93.60
9373;DHT22;10838;52.350;9.790;2023-06-24T07:49:42;25.90;93.40
9373;DHT22;10838;52.350;9.790;2023-06-24T07:52:08;26.00;93.30
9373;DHT22;10838;52.350;9.790;2023-06-24T07:54:35;26.10;93.20
9373;DHT22;10838;52.350;9.790;2023-06-24T07:57:02;26.30;93.20
9373;DHT22;10838;52.350;9.790;2023-06-24T07:59:28;26.40;93.20
9373;DHT22;10838;52.350;9.790;2023-06-24T08:01:55;26.50;93.10
9373;DHT22;10838;52.350;9.790;2023-06-24T08:04:23;26.70;93.00
9373;DHT22;10838;52.350;9.790;2023-06-24T08:06:50;26.80;92.90
9373;DHT22;10838;52.350;9.790;2023-06-24T08:09:17;26.90;92.80
9373;DHT22;10838;52.350;9.790;2023-06-24T08:11:44;27.00;92.60
9373;DHT22;10838;52.350;9.790;2023-06-24T08:14:11;27.10;92.50
9373;DHT22;10838;52.350;9.790;2023-06-24T08:16:37;27.20;92.50
9373;DHT22;10838;52.350;9.790;2023-06-24T08:19:04;27.30;92.50
9373;DHT22;10838;52.350;9.790;2023-06-24T08:21:32;27.40;92.30
9373;DHT22;10838;52.350;9.790;2023-06-24T08:23:59;27.50;92.20
9373;DHT22;10838;52.350;9.790;2023-06-24T08:26:26;27.60;92.10
9373;DHT22;10838;52.350;9.790;2023-06-24T08:28:53;27.60;92.00
9373;DHT22;10838;52.350;9.790;2023-06-24T08:31:19;27.70;92.00
9373;DHT22;10838;52.350;9.790;2023-06-24T08:33:52;27.80;92.00
9373;DHT22;10838;52.350;9.790;2023-06-24T08:36:18;27.80;91.90
9373;DHT22;10838;52.350;9.790;2023-06-24T08:38:46;27.90;91.90
9373;DHT22;10838;52.350;9.790;2023-06-24T08:41:13;28.00;91.80
9373;DHT22;10838;52.350;9.790;2023-06-24T08:43:39;28.10;91.80
9373;DHT22;10838;52.350;9.790;2023-06-24T08:46:07;28.20;91.70
9373;DHT22;10838;52.350;9.790;2023-06-24T08:48:35;28.30;91.60
9373;DHT22;10838;52.350;9.790;2023-06-24T08:51:08;28.40;91.60
9373;DHT22;10838;52.350;9.790;2023-06-24T08:53:36;28.50;91.60
9373;DHT22;10838;52.350;9.790;2023-06-24T08:56:05;28.60;91.50
9373;DHT22;10838;52.350;9.790;2023-06-24T08:58:33;28.70;91.40
9373;DHT22;10838;52.350;9.790;2023-06-24T09:01:00;28.90;91.50
9373;DHT22;10838;52.350;9.790;2023-06-24T09:03:26;28.90;91.40
9373;DHT22;10838;52.350;9.790;2023-06-24T09:05:53;29.00;91.30
9373;DHT22;10838;52.350;9.790;2023-06-24T09:08:20;29.10;91.30
9373;DHT22;10838;52.350;9.790;2023-06-24T09:10:52;29.20;91.30
9373;DHT22;10838;52.350;9.790;2023-06-24T09:13:21;29.30;91.30
9373;DHT22;10838;52.350;9.790;2023-06-24T09:15:48;29.40;91.20
9373;DHT22;10838;52.350;9.790;2023-06-24T09:18:15;29.50;91.10
9373;DHT22;10838;52.350;9.790;2023-06-24T09:20:42;29.50;91.10
9373;DHT22;10838;52.350;9.790;2023-06-24T09:23:11;29.50;91.00
9373;DHT22;10838;52.350;9.790;2023-06-24T09:25:37;29.60;91.00
9373;DHT22;10838;52.350;9.790;2023-06-24T09:28:04;29.70;91.00
9373;DHT22;10838;52.350;9.790;2023-06-24T09:30:32;29.70;91.00
9373;DHT22;10838;52.350;9.790;2023-06-24T09:32:59;29.80;91.00
9373;DHT22;10838;52.350;9.790;2023-06-24T09:35:26;29.90;91.00
9373;DHT22;10838;52.350;9.790;2023-06-24T09:37:53;29.90;90.90
9373;DHT22;10838;52.350;9.790;2023-06-24T09:40:20;30.00;90.80
9373;DHT22;10838;52.350;9.790;2023-06-24T09:42:49;30.00;90.80
9373;DHT22;10838;52.350;9.790;2023-06-24T09:45:19;30.10;90.80
9373;DHT22;10838;52.350;9.790;2023-06-24T09:47:47;30.10;90.60
9373;DHT22;10838;52.350;9.790;2023-06-24T09:50:14;30.10;90.70
9373;DHT22;10838;52.350;9.790;2023-06-24T09:52:42;30.20;90.70
9373;DHT22;10838;52.350;9.790;2023-06-24T09:55:10;30.20;90.70
9373;DHT22;10838;52.350;9.790;2023-06-24T09:57:39;30.20;90.70
9373;DHT22;10838;52.350;9.790;2023-06-24T10:00:09;30.20;90.70
9373;DHT22;10838;52.350;9.790;2023-06-24T10:02:36;30.20;90.60
9373;DHT22;10838;52.350;9.790;2023-06-24T10:05:05;30.20;90.50
9373;DHT22;10838;52.350;9.790;2023-06-24T10:07:33;30.20;90.50
9373;DHT22;10838;52.350;9.790;2023-06-24T10:10:01;30.20;90.50
9373;DHT22;10838;52.350;9.790;2023-06-24T10:12:28;30.20;90.40
9373;DHT22;10838;52.350;9.790;2023-06-24T10:14:57;30.10;90.40
9373;DHT22;10838;52.350;9.790;2023-06-24T10:17:24;30.20;90.40
9373;DHT22;10838;52.350;9.790;2023-06-24T10:19:52;30.20;90.50
9373;DHT22;10838;52.350;9.790;2023-06-24T10:22:22;30.20;90.60
9373;DHT22;10838;52.350;9.790;2023-06-24T10:24:49;30.20;90.60
9373;DHT22;10838;52.350;9.790;2023-06-24T10:27:18;30.20;90.60
9373;DHT22;10838;52.350;9.790;2023-06-24T10:29:48;30.20;90.70
9373;DHT22;10838;52.350;9.790;2023-06-24T10:32:15;30.10;90.50
9373;DHT22;10838;52.350;9.790;2023-06-24T10:34:43;30.10;90.60
9373;DHT22;10838;52.350;9.790;2023-06-24T10:37:12;30.10;90.60
9373;DHT22;10838;52.350;9.790;2023-06-24T10:39:50;30.10;90.50
9373;DHT22;10838;52.350;9.790;2023-06-24T10:42:37;30.20;90.60
9373;DHT22;10838;52.350;9.790;2023-06-24T10:45:20;30.20;90.50
9373;DHT22;10838;52.350;9.790;2023-06-24T10:47:48;30.20;90.40
9373;DHT22;10838;52.350;9.790;2023-06-24T10:50:16;30.20;90.40
9373;DHT22;10838;52.350;9.790;2023-06-24T10:52:43;30.20;90.40
9373;DHT22;10838;52.350;9.790;2023-06-24T10:55:13;30.20;90.50
9373;DHT22;10838;52.350;9.790;2023-06-24T10:57:40;30.30;90.50
9373;DHT22;10838;52.350;9.790;2023-06-24T11:00:08;30.30;90.50
9373;DHT22;10838;52.350;9.790;2023-06-24T11:02:35;30.40;90.40
9373;DHT22;10838;52.350;9.790;2023-06-24T11:05:03;30.40;90.40
9373;DHT22;10838;52.350;9.790;2023-06-24T11:07:32;30.40;90.40
9373;DHT22;10838;52.350;9.790;2023-06-24T11:10:02;30.40;90.30
9373;DHT22;10838;52.350;9.790;2023-06-24T11:12:32;30.40;90.30
9373;DHT22;10838;52.350;9.790;2023-06-24T11:15:00;30.50;90.40
9373;DHT22;10838;52.350;9.790;2023-06-24T11:17:27;30.50;90.30
9373;DHT22;10838;52.350;9.790;2023-06-24T11:19:55;30.50;90.10
9373;DHT22;10838;52.350;9.790;2023-06-24T11:22:23;30.50;90.10
9373;DHT22;10838;52.350;9.790;2023-06-24T11:24:50;30.50;90.20
9373;DHT22;10838;52.350;9.790;2023-06-24T11:27:23;30.50;90.20
9373;DHT22;10838;52.350;9.790;2023-06-24T11:29:51;30.50;90.10
9373;DHT22;10838;52.350;9.790;2023-06-24T11:32:18;30.50;90.20
9373;DHT22;10838;52.350;9.790;2023-06-24T11:34:44;30.50;90.20
9373;DHT22;10838;52.350;9.790;2023-06-24T11:37:12;30.50;90.20
9373;DHT22;10838;52.350;9.790;2023-06-24T11:39:38;30.50;90.20
9373;DHT22;10838;52.350;9.790;2023-06-24T11:42:07;30.50;90.10
9373;DHT22;10838;52.350;9.790;2023-06-24T11:44:34;30.50;90.20
9373;DHT22;10838;52.350;9.790;2023-06-24T11:47:07;30.60;90.20
9373;DHT22;10838;52.350;9.790;2023-06-24T11:49:48;30.60;90.20
9373;DHT22;10838;52.350;9.790;2023-06-24T11:52:15;30.60;90.20
9373;DHT22;10838;52.350;9.790;2023-06-24T11:54:41;30.60;90.10
9373;DHT22;10838;52.350;9.790;2023-06-24T11:57:08;30.60;90.00
9373;DHT22;10838;52.350;9.790;2023-06-24T11:59:35;30.50;90.00
9373;DHT22;10838;52.350;9.790;2023-06-24T12:02:03;30.50;90.00
9373;DHT22;10838;52.350;9.790;2023-06-24T12:04:31;30.50;90.00
9373;DHT22;10838;52.350;9.790;2023-06-24T12:06:59;30.50;90.00
9373;DHT22;10838;52.350;9.790;2023-06-24T12:09:25;30.50;89.80
9373;DHT22;10838;52.350;9.790;2023-06-24T12:11:52;30.50;90.00
9373;DHT22;10838;52.350;9.790;2023-06-24T12:14:19;30.40;90.00
9373;DHT22;10838;52.350;9.790;2023-06-24T12:16:45;30.40;90.00
9373;DHT22;10838;52.350;9.790;2023-06-24T12:19:12;30.40;90.10
9373;DHT22;10838;52.350;9.790;2023-06-24T12:21:40;30.40;90.10
9373;DHT22;10838;52.350;9.790;2023-06-24T12:24:06;30.40;90.00
9373;DHT22;10838;52.350;9.790;2023-06-24T12:26:33;30.40;89.90
9373;DHT22;10838;52.350;9.790;2023-06-24T12:29:02;30.30;89.90
9373;DHT22;10838;52.350;9.790;2023-06-24T12:31:28;30.30;90.00
9373;DHT22;10838;52.350;9.790;2023-06-24T12:33:55;30.30;90.00
9373;DHT22;10838;52.350;9.790;2023-06-24T12:36:22;30.30;90.00
9373;DHT22;10838;52.350;9.790;2023-06-24T12:38:50;30.30;90.00
9373;DHT22;10838;52.350;9.790;2023-06-24T12:41:16;30.40;89.90
9373;DHT22;10838;52.350;9.790;2023-06-24T12:43:43;30.30;90.00
9373;DHT22;10838;52.350;9.790;2023-06-24T12:46:10;30.30;90.00
9373;DHT22;10838;52.350;9.790;2023-06-24T12:48:36;30.30;90.00
9373;DHT22;10838;52.350;9.790;2023-06-24T12:51:03;30.30;89.90
9373;DHT22;10838;52.350;9.790;2023-06-24T12:53:29;30.30;89.90
9373;DHT22;10838;52.350;9.790;2023-06-24T12:55:57;30.30;89.80
9373;DHT22;10838;52.350;9.790;2023-06-24T12:58:24;30.40;90.00
9373;DHT22;10838;52.350;9.790;2023-06-24T13:00:51;30.40;90.10
9373;DHT22;10838;52.350;9.790;2023-06-24T13:03:18;30.40;90.00
9373;DHT22;10838;52.350;9.790;2023-06-24T13:05:44;30.50;90.10
9373;DHT22;10838;52.350;9.790;2023-06-24T13:08:11;30.50;90.10
9373;DHT22;10838;52.350;9.790;2023-06-24T13:10:38;30.50;89.80
9373;DHT22;10838;52.350;9.790;2023-06-24T13:13:06;30.50;89.80
9373;DHT22;10838;52.350;9.790;2023-06-24T13:15:32;30.50;89.80
9373;DHT22;10838;52.350;9.790;2023-06-24T13:17:59;30.50;89.60
9373;DHT22;10838;52.350;9.790;2023-06-24T13:20:26;30.40;89.60
9373;DHT22;10838;52.350;9.790;2023-06-24T13:22:53;30.30;89.80
9373;DHT22;10838;52.350;9.790;2023-06-24T13:25:20;30.30;89.80
9373;DHT22;10838;52.350;9.790;2023-06-24T13:27:46;30.30;89.90
9373;DHT22;10838;52.350;9.790;2023-06-24T13:30:15;30.30;89.80
9373;DHT22;10838;52.350;9.790;2023-06-24T13:32:42;30.30;90.00
9373;DHT22;10838;52.350;9.790;2023-06-24T13:35:08;30.30;90.00
9373;DHT22;10838;52.350;9.790;2023-06-24T13:37:35;30.30;89.80
9373;DHT22;10838;52.350;9.790;2023-06-24T13:40:04;30.30;89.60
9373;DHT22;10838;52.350;9.790;2023-06-24T13:42:31;30.30;89.80
9373;DHT22;10838;52.350;9.790;2023-06-24T13:44:58;30.30;89.60
9373;DHT22;10838;52.350;9.790;2023-06-24T13:47:25;30.30;89.60
9373;DHT22;10838;52.350;9.790;2023-06-24T13:49:52;30.30;89.70
9373;DHT22;10838;52.350;9.790;2023-06-24T13:52:19;30.30;89.70
9373;DHT22;10838;52.350;9.790;2023-06-24T13:54:46;30.30;89.40
9373;DHT22;10838;52.350;9.790;2023-06-24T13:57:13;30.40;89.20
9373;DHT22;10838;52.350;9.790;2023-06-24T13:59:41;30.30;89.50
9373;DHT22;10838;52.350;9.790;2023-06-24T14:02:08;30.40;89.30
9373;DHT22;10838;52.350;9.790;2023-06-24T14:04:38;30.30;89.10
9373;DHT22;10838;52.350;9.790;2023-06-24T14:07:05;30.20;89.00
9373;DHT22;10838;52.350;9.790;2023-06-24T14:09:32;30.20;89.30
9373;DHT22;10838;52.350;9.790;2023-06-24T14:11:59;30.20;88.90
9373;DHT22;10838;52.350;9.790;2023-06-24T14:14:25;30.20;88.80
9373;DHT22;10838;52.350;9.790;2023-06-24T14:16:52;30.20;88.70
9373;DHT22;10838;52.350;9.790;2023-06-24T14:19:19;30.20;88.60
9373;DHT22;10838;52.350;9.790;2023-06-24T14:21:46;30.20;88.70
9373;DHT22;10838;52.350;9.790;2023-06-24T14:24:13;30.20;88.90
9373;DHT22;10838;52.350;9.790;2023-06-24T14:26:39;30.20;89.00
9373;DHT22;10838;52.350;9.790;2023-06-24T14:29:06;30.20;88.90
9373;DHT22;10838;52.350;9.790;2023-06-24T14:31:33;30.20;89.10
9373;DHT22;10838;52.350;9.790;2023-06-24T14:33:59;30.20;89.00
9373;DHT22;10838;52.350;9.790;2023-06-24T14:36:26;30.20;88.90
9373;DHT22;10838;52.350;9.790;2023-06-24T14:38:54;30.10;88.80
9373;DHT22;10838;52.350;9.790;2023-06-24T14:41:20;30.20;88.80
9373;DHT22;10838;52.350;9.790;2023-06-24T14:43:47;30.20;88.90
9373;DHT22;10838;52.350;9.790;2023-06-24T14:46:13;30.20;88.80
9373;DHT22;10838;52.350;9.790;2023-06-24T14:48:40;30.20;88.90
9373;DHT22;10838;52.350;9.790;2023-06-24T14:51:06;30.30;88.80
9373;DHT22;10838;52.350;9.790;2023-06-24T14:53:33;30.40;88.80
9373;DHT22;10838;52.350;9.790;2023-06-24T14:56:01;30.40;88.80
9373;DHT22;10838;52.350;9.790;2023-06-24T14:58:27;30.40;88.70
9373;DHT22;10838;52.350;9.790;2023-06-24T15:00:54;30.40;88.50
9373;DHT22;10838;52.350;9.790;2023-06-24T15:03:20;30.40;88.40
9373;DHT22;10838;52.350;9.790;2023-06-24T15:05:47;30.40;88.30
9373;DHT22;10838;52.350;9.790;2023-06-24T15:08:14;30.30;88.20
9373;DHT22;10838;52.350;9.790;2023-06-24T15:10:40;30.30;88.30
9373;DHT22;10838;52.350;9.790;2023-06-24T15:13:08;30.20;88.40
9373;DHT22;10838;52.350;9.790;2023-06-24T15:15:35;30.20;88.60
9373;DHT22;10838;52.350;9.790;2023-06-24T15:18:01;30.10;88.80
9373;DHT22;10838;52.350;9.790;2023-06-24T15:20:28;30.10;88.70
9373;DHT22;10838;52.350;9.790;2023-06-24T15:22:54;30.00;88.60
9373;DHT22;10838;52.350;9.790;2023-06-24T15:25:21;29.90;88.70
9373;DHT22;10838;52.350;9.790;2023-06-24T15:27:47;29.80;88.70
9373;DHT22;10838;52.350;9.790;2023-06-24T15:30:16;29.80;88.60
9373;DHT22;10838;52.350;9.790;2023-06-24T15:32:42;29.90;88.70
9373;DHT22;10838;52.350;9.790;2023-06-24T15:35:10;29.80;88.80
9373;DHT22;10838;52.350;9.790;2023-06-24T15:37:37;29.80;88.80
9373;DHT22;10838;52.350;9.790;2023-06-24T15:40:05;29.80;89.10
9373;DHT22;10838;52.350;9.790;2023-06-24T15:42:32;29.80;89.10
9373;DHT22;10838;52.350;9.790;2023-06-24T15:44:58;29.80;89.00
9373;DHT22;10838;52.350;9.790;2023-06-24T15:47:27;29.80;89.00
9373;DHT22;10838;52.350;9.790;2023-06-24T15:49:54;29.80;88.90